Time;durP1;ratioP1;P1;durP2;ratioP2;P2;SDS_P1;SDS_P2;PMS_P1;PMS_P2;Temp;Humidity;BMP_temperature;BMP_pressure;BME280_temperature;BME280_humidity;BME280_pressure;Samples;Min_cycle;Max_cycle;Signal;HPM_P1;HPM_P2
2022/09/05 00:03:03;;;;;;;8.9;11.8;;;;;;;13.2;100;99430;;;;
2022/09/05 00:13:03;;;;;;;8.9;11.8;;;;;;;13.2;100;99430;;;;
2022/09/05 00:23:03;;;;;;;8.9;11.8;;;;;;;13.1;100;99430;;;;
2022/09/05 00:34:03;;;;;;;8.6;10.9;;;;;;;13.1;100;99420;;;;
2022/09/05 00:45:03;;;;;;;8.6;10.9;;;;;;;13.1;100;99410;;;;
2022/09/05 00:55:03;;;;;;;8.6;10.9;;;;;;;13.1;100;99410;;;;
2022/09/05 01:06:03;;;;;;;7.6;11;;;;;;;13;100;99410;;;;
2022/09/05 01:16:03;;;;;;;7.6;11;;;;;;;12.8;100;99410;;;;
2022/09/05 01:26:03;;;;;;;7.4;11.2;;;;;;;12.7;100;99410;;;;
2022/09/05 01:36:03;;;;;;;7.4;11.2;;;;;;;12.7;100;99410;;;;
2022/09/05 01:47:03;;;;;;;7.4;11.2;;;;;;;12.5;100;99420;;;;
2022/09/05 01:57:03;;;;;;;8.2;11.2;;;;;;;12.5;100;99420;;;;
2022/09/05 02:08:03;;;;;;;8.2;11.2;;;;;;;12.4;100;99420;;;;
2022/09/05 02:18:03;;;;;;;8.2;11.2;;;;;;;12.3;100;99420;;;;
2022/09/05 02:29:03;;;;;;;6.2;8.3;;;;;;;12.2;100;99430;;;;
2022/09/05 02:39:03;;;;;;;6.2;8.3;;;;;;;12;100;99430;;;;
2022/09/05 02:49:03;;;;;;;6.2;8.3;;;;;;;11.8;100;99430;;;;
2022/09/05 02:59:03;;;;;;;5.1;7.3;;;;;;;11.6;100;99420;;;;
2022/09/05 03:09:03;;;;;;;5.1;7.3;;;;;;;11.6;100;99420;;;;
2022/09/05 03:20:03;;;;;;;5.1;7.3;;;;;;;11.6;100;99420;;;;
2022/09/05 03:30:03;;;;;;;5.9;10.6;;;;;;;11.6;100;99430;;;;
2022/09/05 03:41:03;;;;;;;5.9;10.6;;;;;;;11.6;100;99430;;;;
2022/09/05 03:52:03;;;;;;;5.9;10.6;;;;;;;11.7;100;99440;;;;
2022/09/05 04:02:03;;;;;;;8;10.8;;;;;;;11.6;100;99440;;;;
2022/09/05 04:12:03;;;;;;;8;10.8;;;;;;;11.6;100;99460;;;;
2022/09/05 04:23:03;;;;;;;8;10.8;;;;;;;11.5;100;99460;;;;
2022/09/05 04:34:03;;;;;;;6.3;10.7;;;;;;;11.5;100;99480;;;;
2022/09/05 04:45:03;;;;;;;6.3;10.7;;;;;;;11.6;100;99490;;;;
2022/09/05 04:56:03;;;;;;;6.4;9.7;;;;;;;11.9;100;99510;;;;
2022/09/05 05:07:03;;;;;;;6.4;9.7;;;;;;;12;100;99530;;;;
2022/09/05 05:18:03;;;;;;;6.4;9.7;;;;;;;12.5;100;99540;;;;
2022/09/05 05:28:03;;;;;;;6.8;9.8;;;;;;;12.7;100;99540;;;;
2022/09/05 05:38:03;;;;;;;6.8;9.8;;;;;;;13.2;100;99550;;;;
2022/09/05 05:49:03;;;;;;;6.8;9.8;;;;;;;13.3;100;99550;;;;
2022/09/05 06:00:03;;;;;;;7.2;10.5;;;;;;;13.6;100;99550;;;;
2022/09/05 06:11:03;;;;;;;7.2;10.5;;;;;;;14.1;100;99560;;;;
2022/09/05 06:22:03;;;;;;;7.2;10.5;;;;;;;14.2;100;99560;;;;
2022/09/05 06:33:03;;;;;;;8.3;10.8;;;;;;;14.5;100;99570;;;;
2022/09/05 06:43:03;;;;;;;8.3;10.8;;;;;;;14.6;100;99570;;;;
2022/09/05 06:53:03;;;;;;;8.3;10.8;;;;;;;15;100;99580;;;;
2022/09/05 07:04:03;;;;;;;9;11.8;;;;;;;15.1;100;99590;;;;
2022/09/05 07:14:03;;;;;;;9;11.8;;;;;;;15.3;100;99600;;;;
2022/09/05 07:24:03;;;;;;;9;11.8;;;;;;;15.6;100;99600;;;;
2022/09/05 07:35:03;;;;;;;9;11.5;;;;;;;16;100;99590;;;;
2022/09/05 07:46:03;;;;;;;9;11.5;;;;;;;16.5;100;99600;;;;
2022/09/05 07:56:03;;;;;;;7.1;11.6;;;;;;;17;100;99600;;;;
2022/09/05 08:06:03;;;;;;;7.1;11.6;;;;;;;17.3;100;99610;;;;
2022/09/05 08:16:03;;;;;;;7.1;11.6;;;;;;;17.1;100;99600;;;;
2022/09/05 08:27:03;;;;;;;5.2;8.7;;;;;;;17.3;100;99600;;;;
2022/09/05 08:38:03;;;;;;;5.2;8.7;;;;;;;18.1;100;99590;;;;
2022/09/05 08:48:03;;;;;;;5.2;8.7;;;;;;;18.3;100;99590;;;;
2022/09/05 08:58:03;;;;;;;5.2;10.4;;;;;;;18.5;100;99580;;;;
2022/09/05 09:08:03;;;;;;;5.2;10.4;;;;;;;18.8;100;99570;;;;
2022/09/05 09:18:03;;;;;;;5.2;10.4;;;;;;;19.1;100;99560;;;;
2022/09/05 09:28:03;;;;;;;4.2;7.5;;;;;;;19.2;100;99560;;;;
2022/09/05 09:39:03;;;;;;;4.2;7.5;;;;;;;19.6;100;99550;;;;
2022/09/05 09:49:03;;;;;;;4.2;7.5;;;;;;;19.5;100;99560;;;;
2022/09/05 10:00:04;;;;;;;4.2;8;;;;;;;19.8;100;99550;;;;
2022/09/05 10:10:03;;;;;;;4.2;8;;;;;;;20.7;100;99540;;;;
2022/09/05 10:21:03;;;;;;;4.2;8;;;;;;;20.8;100;99530;;;;
2022/09/05 10:31:03;;;;;;;3.9;7.4;;;;;;;21;100;99540;;;;
2022/09/05 10:42:03;;;;;;;3.9;7.4;;;;;;;21.3;100;99530;;;;
2022/09/05 10:52:03;;;;;;;3.9;7.4;;;;;;;21.5;100;99520;;;;
2022/09/05 11:02:03;;;;;;;3.8;7.1;;;;;;;21.5;100;99520;;;;
2022/09/05 11:13:03;;;;;;;3.8;7.1;;;;;;;21.4;100;99510;;;;
2022/09/05 11:24:03;;;;;;;3.8;7.1;;;;;;;21.7;99.6;99510;;;;
2022/09/05 11:35:03;;;;;;;3.9;9.8;;;;;;;21.7;100;99490;;;;
2022/09/05 11:45:03;;;;;;;3.9;9.8;;;;;;;21.2;100;99490;;;;
2022/09/05 11:55:03;;;;;;;3.9;9.8;;;;;;;21.2;97.7;99490;;;;
2022/09/05 12:06:03;;;;;;;4.1;7.4;;;;;;;21.2;100;99480;;;;
2022/09/05 12:16:03;;;;;;;4.1;7.4;;;;;;;21.5;97.4;99480;;;;
2022/09/05 12:27:03;;;;;;;4;7.1;;;;;;;21.6;98.1;99470;;;;
2022/09/05 12:37:03;;;;;;;4;7.1;;;;;;;21.5;93.8;99470;;;;
2022/09/05 12:48:03;;;;;;;4;7.1;;;;;;;21.5;96.7;99460;;;;
2022/09/05 12:59:03;;;;;;;3.5;7.6;;;;;;;21.8;95.5;99450;;;;
2022/09/05 13:09:03;;;;;;;3.5;7.6;;;;;;;22;95.6;99440;;;;
2022/09/05 13:20:03;;;;;;;3.5;7.6;;;;;;;21.8;91.9;99440;;;;
2022/09/05 13:30:05;;;;;;;3.6;6;;;;;;;21.8;93.9;99430;;;;
2022/09/05 13:41:04;;;;;;;3.6;6;;;;;;;22.4;92.1;99420;;;;
2022/09/05 13:52:04;;;;;;;3.6;6;;;;;;;22.4;87.9;99430;;;;
2022/09/05 14:03:03;;;;;;;3.3;5.9;;;;;;;21.9;84.6;99430;;;;
2022/09/05 14:14:07;;;;;;;3.3;5.9;;;;;;;22.7;89.3;99420;;;;
2022/09/05 14:24:03;;;;;;;3.3;5.9;;;;;;;22.4;90.4;99420;;;;
2022/09/05 14:35:03;;;;;;;2.9;5.4;;;;;;;22.8;89.6;99410;;;;
2022/09/05 14:45:03;;;;;;;2.9;5.4;;;;;;;22.7;88.2;99400;;;;
2022/09/05 14:56:03;;;;;;;9;15.5;;;;;;;23;88.6;99390;;;;
2022/09/05 15:06:03;;;;;;;9;15.5;;;;;;;23.9;86.7;99390;;;;
2022/09/05 15:17:03;;;;;;;9;15.5;;;;;;;23.3;79.5;99390;;;;
2022/09/05 15:27:04;;;;;;;11.3;24.4;;;;;;;24.3;79.6;99380;;;;
2022/09/05 15:37:04;;;;;;;11.3;24.4;;;;;;;23.8;76;99380;;;;
2022/09/05 15:48:04;;;;;;;11.3;24.4;;;;;;;23.3;77.7;99370;;;;
2022/09/05 15:59:03;;;;;;;3.5;6.1;;;;;;;21.9;85.6;99360;;;;
2022/09/05 16:10:03;;;;;;;3.5;6.1;;;;;;;21.1;89.6;99340;;;;
2022/09/05 16:20:03;;;;;;;3.5;6.1;;;;;;;21.2;90.3;99340;;;;
2022/09/05 16:31:03;;;;;;;3.7;6.8;;;;;;;20.7;92.8;99340;;;;
2022/09/05 16:41:03;;;;;;;3.7;6.8;;;;;;;20.1;94.7;99340;;;;
2022/09/05 16:51:03;;;;;;;3.7;6.8;;;;;;;19.5;97.6;99330;;;;
2022/09/05 17:01:03;;;;;;;3.2;6;;;;;;;19.2;99.4;99330;;;;
2022/09/05 17:11:03;;;;;;;3.2;6;;;;;;;18.8;100;99330;;;;
2022/09/05 17:21:05;;;;;;;3.2;6;;;;;;;18.1;100;99330;;;;
2022/09/05 17:32:04;;;;;;;4.4;7.7;;;;;;;17.9;100;99340;;;;
2022/09/05 17:42:03;;;;;;;4.4;7.7;;;;;;;17.8;100;99350;;;;
2022/09/05 17:52:04;;;;;;;4.4;7.7;;;;;;;17.5;100;99350;;;;
2022/09/05 18:03:03;;;;;;;4.3;7.4;;;;;;;17.3;100;99360;;;;
2022/09/05 18:13:03;;;;;;;4.3;7.4;;;;;;;17.2;100;99370;;;;
2022/09/05 18:24:03;;;;;;;4.3;7.4;;;;;;;17.2;100;99370;;;;
2022/09/05 18:35:03;;;;;;;5.4;11.3;;;;;;;17.1;100;99380;;;;
2022/09/05 18:45:04;;;;;;;5.4;11.3;;;;;;;16.8;100;99380;;;;
2022/09/05 18:56:03;;;;;;;5.5;10;;;;;;;16.6;100;99390;;;;
2022/09/05 19:06:03;;;;;;;5.5;10;;;;;;;16.4;100;99390;;;;
2022/09/05 19:17:03;;;;;;;5.5;10;;;;;;;16.2;100;99380;;;;
2022/09/05 19:27:03;;;;;;;6.7;11.8;;;;;;;16;100;99370;;;;
2022/09/05 19:38:03;;;;;;;6.7;11.8;;;;;;;15.7;100;99360;;;;
2022/09/05 19:48:03;;;;;;;6.7;11.8;;;;;;;15.6;100;99360;;;;
2022/09/05 19:58:03;;;;;;;4.6;7.9;;;;;;;15.3;100;99350;;;;
2022/09/05 20:08:06;;;;;;;4.6;7.9;;;;;;;15.2;100;99340;;;;
2022/09/05 20:19:05;;;;;;;4.6;7.9;;;;;;;15;100;99340;;;;
2022/09/05 20:30:03;;;;;;;4;8.4;;;;;;;14.7;100;99340;;;;
2022/09/05 20:41:03;;;;;;;4;8.4;;;;;;;14.6;100;99340;;;;
2022/09/05 20:51:05;;;;;;;4;8.4;;;;;;;14.4;100;99330;;;;
2022/09/05 21:02:03;;;;;;;4.4;6.7;;;;;;;14.2;100;99330;;;;
2022/09/05 21:12:05;;;;;;;4.4;6.7;;;;;;;14;100;99340;;;;
2022/09/05 21:22:03;;;;;;;4.4;6.7;;;;;;;13.9;100;99340;;;;
2022/09/05 21:33:04;;;;;;;4.9;8.7;;;;;;;13.7;100;99340;;;;
2022/09/05 21:43:04;;;;;;;4.9;8.7;;;;;;;13.7;100;99340;;;;
2022/09/05 21:54:03;;;;;;;4.9;8.7;;;;;;;13.5;100;99340;;;;
2022/09/05 22:05:03;;;;;;;5.1;8.9;;;;;;;13.4;100;99330;;;;
2022/09/05 22:15:03;;;;;;;5.1;8.9;;;;;;;13.1;100;99330;;;;
2022/09/05 22:26:04;;;;;;;5.9;8.5;;;;;;;12.8;100;99330;;;;
2022/09/05 22:36:03;;;;;;;5.9;8.5;;;;;;;12.7;100;99330;;;;
2022/09/05 22:46:03;;;;;;;5.9;8.5;;;;;;;12.4;100;99330;;;;
2022/09/05 22:57:03;;;;;;;5.2;8;;;;;;;12.2;100;99330;;;;
2022/09/05 23:07:03;;;;;;;5.2;8;;;;;;;11.9;100;99320;;;;
2022/09/05 23:17:03;;;;;;;5.2;8;;;;;;;11.6;100;99300;;;;
2022/09/05 23:28:03;;;;;;;5.3;9.1;;;;;;;11.7;100;99290;;;;
2022/09/05 23:39:03;;;;;;;5.3;9.1;;;;;;;11.6;100;99280;;;;
2022/09/05 23:49:03;;;;;;;5.3;9.1;;;;;;;11.6;100;99280;;;;
2022/09/05 23:59:03;;;;;;;4.9;9.4;;;;;;;11.6;100;99290;;;;
